sensor_id;sensor_type;location;lat;lon;timestamp;P1;durP1;ratioP1;P2;durP2;ratioP2
25497;SDS011;13406;53.380;7.226;2022-12-20T00:00:41;6.53;;;4.67;;
25497;SDS011;13406;53.380;7.226;2022-12-20T00:03:06;5.43;;;4.00;;
25497;SDS011;13406;53.380;7.226;2022-12-20T00:05:34;4.37;;;3.97;;
25497;SDS011;13406;53.380;7.226;2022-12-20T00:08:00;7.90;;;3.40;;
25497;SDS011;13406;53.380;7.226;2022-12-20T00:10:25;6.73;;;4.43;;
25497;SDS011;13406;53.380;7.226;2022-12-20T00:12:50;6.93;;;4.03;;
25497;SDS011;13406;53.380;7.226;2022-12-20T00:15:15;7.40;;;4.33;;
25497;SDS011;13406;53.380;7.226;2022-12-20T00:17:41;5.97;;;3.30;;
25497;SDS011;13406;53.380;7.226;2022-12-20T00:20:06;3.80;;;3.20;;
25497;SDS011;13406;53.380;7.226;2022-12-20T00:22:32;8.03;;;3.93;;
25497;SDS011;13406;53.380;7.226;2022-12-20T00:24:57;7.53;;;3.73;;
25497;SDS011;13406;53.380;7.226;2022-12-20T00:27:22;8.07;;;4.70;;
25497;SDS011;13406;53.380;7.226;2022-12-20T00:29:47;6.23;;;4.13;;
25497;SDS011;13406;53.380;7.226;2022-12-20T00:32:13;9.90;;;5.07;;
25497;SDS011;13406;53.380;7.226;2022-12-20T00:34:38;6.07;;;4.10;;
25497;SDS011;13406;53.380;7.226;2022-12-20T00:37:03;5.07;;;3.90;;
25497;SDS011;13406;53.380;7.226;2022-12-20T00:39:29;7.77;;;3.63;;
25497;SDS011;13406;53.380;7.226;2022-12-20T00:41:54;4.20;;;3.50;;
25497;SDS011;13406;53.380;7.226;2022-12-20T00:44:19;6.90;;;3.57;;
25497;SDS011;13406;53.380;7.226;2022-12-20T00:46:44;4.23;;;3.40;;
25497;SDS011;13406;53.380;7.226;2022-12-20T00:49:10;6.00;;;3.80;;
25497;SDS011;13406;53.380;7.226;2022-12-20T00:51:35;6.30;;;4.20;;
25497;SDS011;13406;53.380;7.226;2022-12-20T00:54:00;5.43;;;4.10;;
25497;SDS011;13406;53.380;7.226;2022-12-20T00:56:26;4.73;;;3.90;;
25497;SDS011;13406;53.380;7.226;2022-12-20T00:58:51;7.70;;;4.30;;
25497;SDS011;13406;53.380;7.226;2022-12-20T01:01:21;5.37;;;3.53;;
25497;SDS011;13406;53.380;7.226;2022-12-20T01:03:48;4.13;;;3.73;;
25497;SDS011;13406;53.380;7.226;2022-12-20T01:06:13;4.57;;;3.60;;
25497;SDS011;13406;53.380;7.226;2022-12-20T01:08:38;5.90;;;4.13;;
25497;SDS011;13406;53.380;7.226;2022-12-20T01:11:08;4.30;;;3.50;;
25497;SDS011;13406;53.380;7.226;2022-12-20T01:13:35;4.30;;;3.80;;
25497;SDS011;13406;53.380;7.226;2022-12-20T01:16:05;4.07;;;3.60;;
25497;SDS011;13406;53.380;7.226;2022-12-20T01:18:31;6.87;;;4.50;;
25497;SDS011;13406;53.380;7.226;2022-12-20T01:21:00;8.23;;;3.97;;
25497;SDS011;13406;53.380;7.226;2022-12-20T01:23:25;9.07;;;3.80;;
25497;SDS011;13406;53.380;7.226;2022-12-20T01:25:50;5.77;;;4.20;;
25497;SDS011;13406;53.380;7.226;2022-12-20T01:28:16;4.50;;;3.53;;
25497;SDS011;13406;53.380;7.226;2022-12-20T01:30:41;7.80;;;3.90;;
25497;SDS011;13406;53.380;7.226;2022-12-20T01:33:07;5.40;;;3.57;;
25497;SDS011;13406;53.380;7.226;2022-12-20T01:35:32;8.80;;;4.07;;
25497;SDS011;13406;53.380;7.226;2022-12-20T01:37:57;5.73;;;4.00;;
25497;SDS011;13406;53.380;7.226;2022-12-20T01:40:23;4.47;;;3.10;;
25497;SDS011;13406;53.380;7.226;2022-12-20T01:42:48;9.00;;;3.87;;
25497;SDS011;13406;53.380;7.226;2022-12-20T01:45:14;5.33;;;3.37;;
25497;SDS011;13406;53.380;7.226;2022-12-20T01:47:43;5.50;;;3.10;;
25497;SDS011;13406;53.380;7.226;2022-12-20T01:50:09;3.70;;;3.20;;
25497;SDS011;13406;53.380;7.226;2022-12-20T01:52:35;6.30;;;3.60;;
25497;SDS011;13406;53.380;7.226;2022-12-20T01:55:06;5.37;;;3.10;;
25497;SDS011;13406;53.380;7.226;2022-12-20T01:57:43;7.30;;;3.20;;
25497;SDS011;13406;53.380;7.226;2022-12-20T02:00:09;4.23;;;2.90;;
25497;SDS011;13406;53.380;7.226;2022-12-20T02:02:35;6.17;;;3.50;;
25497;SDS011;13406;53.380;7.226;2022-12-20T02:05:02;5.60;;;3.37;;
25497;SDS011;13406;53.380;7.226;2022-12-20T02:07:28;5.87;;;3.20;;
25497;SDS011;13406;53.380;7.226;2022-12-20T02:09:55;6.90;;;3.23;;
25497;SDS011;13406;53.380;7.226;2022-12-20T02:12:24;4.83;;;3.30;;
25497;SDS011;13406;53.380;7.226;2022-12-20T02:32:23;6.00;;;3.87;;
25497;SDS011;13406;53.380;7.226;2022-12-20T02:34:49;5.07;;;3.77;;
25497;SDS011;13406;53.380;7.226;2022-12-20T02:37:15;7.27;;;3.63;;
25497;SDS011;13406;53.380;7.226;2022-12-20T02:39:40;4.70;;;3.83;;
25497;SDS011;13406;53.380;7.226;2022-12-20T02:42:07;5.67;;;4.10;;
25497;SDS011;13406;53.380;7.226;2022-12-20T02:44:34;5.30;;;3.37;;
25497;SDS011;13406;53.380;7.226;2022-12-20T02:47:20;5.50;;;4.47;;
25497;SDS011;13406;53.380;7.226;2022-12-20T02:49:47;5.27;;;3.90;;
25497;SDS011;13406;53.380;7.226;2022-12-20T02:52:13;5.97;;;3.33;;
25497;SDS011;13406;53.380;7.226;2022-12-20T02:54:39;4.00;;;3.00;;
25497;SDS011;13406;53.380;7.226;2022-12-20T02:57:06;6.43;;;3.90;;
25497;SDS011;13406;53.380;7.226;2022-12-20T02:59:35;6.10;;;3.63;;
25497;SDS011;13406;53.380;7.226;2022-12-20T03:02:03;4.97;;;3.77;;
25497;SDS011;13406;53.380;7.226;2022-12-20T03:04:30;4.33;;;3.30;;
25497;SDS011;13406;53.380;7.226;2022-12-20T03:07:01;4.33;;;3.77;;
25497;SDS011;13406;53.380;7.226;2022-12-20T03:09:27;5.80;;;3.30;;
25497;SDS011;13406;53.380;7.226;2022-12-20T03:11:53;4.93;;;3.63;;
25497;SDS011;13406;53.380;7.226;2022-12-20T03:14:18;6.20;;;3.70;;
25497;SDS011;13406;53.380;7.226;2022-12-20T03:16:44;5.23;;;3.50;;
25497;SDS011;13406;53.380;7.226;2022-12-20T03:19:09;9.63;;;4.07;;
25497;SDS011;13406;53.380;7.226;2022-12-20T03:21:34;5.67;;;3.03;;
25497;SDS011;13406;53.380;7.226;2022-12-20T03:23:59;5.70;;;3.40;;
25497;SDS011;13406;53.380;7.226;2022-12-20T03:26:25;7.13;;;3.67;;
25497;SDS011;13406;53.380;7.226;2022-12-20T03:28:50;4.03;;;3.13;;
25497;SDS011;13406;53.380;7.226;2022-12-20T03:31:16;5.60;;;3.33;;
25497;SDS011;13406;53.380;7.226;2022-12-20T03:33:41;4.30;;;2.93;;
25497;SDS011;13406;53.380;7.226;2022-12-20T03:36:07;4.30;;;3.40;;
25497;SDS011;13406;53.380;7.226;2022-12-20T03:38:32;4.90;;;3.50;;
25497;SDS011;13406;53.380;7.226;2022-12-20T03:40:57;7.53;;;3.63;;
25497;SDS011;13406;53.380;7.226;2022-12-20T03:43:22;6.07;;;3.70;;
25497;SDS011;13406;53.380;7.226;2022-12-20T03:45:48;8.00;;;3.50;;
25497;SDS011;13406;53.380;7.226;2022-12-20T03:48:13;6.97;;;4.30;;
25497;SDS011;13406;53.380;7.226;2022-12-20T03:50:38;6.97;;;4.00;;
25497;SDS011;13406;53.380;7.226;2022-12-20T03:53:03;4.33;;;3.67;;
25497;SDS011;13406;53.380;7.226;2022-12-20T03:55:29;6.10;;;3.83;;
25497;SDS011;13406;53.380;7.226;2022-12-20T03:57:54;5.30;;;3.47;;
25497;SDS011;13406;53.380;7.226;2022-12-20T04:00:19;8.20;;;4.80;;
25497;SDS011;13406;53.380;7.226;2022-12-20T04:02:45;6.20;;;4.23;;
25497;SDS011;13406;53.380;7.226;2022-12-20T04:05:10;4.10;;;3.33;;
25497;SDS011;13406;53.380;7.226;2022-12-20T04:07:35;5.47;;;3.90;;
25497;SDS011;13406;53.380;7.226;2022-12-20T04:10:01;4.93;;;3.30;;
25497;SDS011;13406;53.380;7.226;2022-12-20T04:12:26;6.47;;;3.80;;
25497;SDS011;13406;53.380;7.226;2022-12-20T04:14:51;5.63;;;4.27;;
25497;SDS011;13406;53.380;7.226;2022-12-20T04:17:16;7.97;;;3.77;;
25497;SDS011;13406;53.380;7.226;2022-12-20T04:19:42;7.40;;;4.20;;
25497;SDS011;13406;53.380;7.226;2022-12-20T04:22:07;6.47;;;3.80;;
25497;SDS011;13406;53.380;7.226;2022-12-20T04:24:33;6.93;;;4.13;;
25497;SDS011;13406;53.380;7.226;2022-12-20T04:26:58;6.40;;;4.13;;
25497;SDS011;13406;53.380;7.226;2022-12-20T04:29:23;7.13;;;4.03;;
25497;SDS011;13406;53.380;7.226;2022-12-20T04:31:48;6.57;;;5.30;;
25497;SDS011;13406;53.380;7.226;2022-12-20T04:34:14;8.13;;;4.80;;
25497;SDS011;13406;53.380;7.226;2022-12-20T04:36:39;6.20;;;4.23;;
25497;SDS011;13406;53.380;7.226;2022-12-20T04:39:04;3.60;;;2.97;;
25497;SDS011;13406;53.380;7.226;2022-12-20T04:41:29;4.20;;;3.60;;
25497;SDS011;13406;53.380;7.226;2022-12-20T04:43:56;4.23;;;3.30;;
25497;SDS011;13406;53.380;7.226;2022-12-20T04:46:22;5.20;;;4.00;;
25497;SDS011;13406;53.380;7.226;2022-12-20T04:48:47;4.93;;;3.57;;
25497;SDS011;13406;53.380;7.226;2022-12-20T04:51:13;4.40;;;3.57;;
25497;SDS011;13406;53.380;7.226;2022-12-20T04:53:38;5.10;;;3.83;;
25497;SDS011;13406;53.380;7.226;2022-12-20T04:56:27;5.57;;;3.70;;
25497;SDS011;13406;53.380;7.226;2022-12-20T04:58:53;5.63;;;3.80;;
25497;SDS011;13406;53.380;7.226;2022-12-20T05:01:19;5.80;;;3.73;;
25497;SDS011;13406;53.380;7.226;2022-12-20T05:03:45;6.57;;;4.43;;
25497;SDS011;13406;53.380;7.226;2022-12-20T05:06:10;6.80;;;4.60;;
25497;SDS011;13406;53.380;7.226;2022-12-20T05:08:36;6.67;;;4.37;;
25497;SDS011;13406;53.380;7.226;2022-12-20T05:11:02;5.73;;;4.00;;
25497;SDS011;13406;53.380;7.226;2022-12-20T05:13:27;5.80;;;4.00;;
25497;SDS011;13406;53.380;7.226;2022-12-20T05:15:53;5.73;;;4.20;;
25497;SDS011;13406;53.380;7.226;2022-12-20T05:18:19;8.33;;;3.80;;
25497;SDS011;13406;53.380;7.226;2022-12-20T05:20:44;5.70;;;3.90;;
25497;SDS011;13406;53.380;7.226;2022-12-20T05:23:12;5.10;;;4.20;;
25497;SDS011;13406;53.380;7.226;2022-12-20T05:25:56;7.57;;;4.40;;
25497;SDS011;13406;53.380;7.226;2022-12-20T05:28:40;4.40;;;3.70;;
25497;SDS011;13406;53.380;7.226;2022-12-20T05:31:05;6.43;;;4.03;;
25497;SDS011;13406;53.380;7.226;2022-12-20T05:33:30;4.30;;;3.63;;
25497;SDS011;13406;53.380;7.226;2022-12-20T05:35:56;5.10;;;3.87;;
25497;SDS011;13406;53.380;7.226;2022-12-20T05:38:21;4.30;;;3.90;;
25497;SDS011;13406;53.380;7.226;2022-12-20T05:40:47;4.20;;;3.53;;
25497;SDS011;13406;53.380;7.226;2022-12-20T05:43:13;5.43;;;3.93;;
25497;SDS011;13406;53.380;7.226;2022-12-20T05:45:38;5.63;;;4.10;;
25497;SDS011;13406;53.380;7.226;2022-12-20T05:48:03;5.73;;;4.30;;
25497;SDS011;13406;53.380;7.226;2022-12-20T05:50:29;6.47;;;4.20;;
25497;SDS011;13406;53.380;7.226;2022-12-20T05:52:54;4.60;;;3.60;;
25497;SDS011;13406;53.380;7.226;2022-12-20T05:55:20;5.97;;;3.90;;
25497;SDS011;13406;53.380;7.226;2022-12-20T05:57:45;6.83;;;4.10;;
25497;SDS011;13406;53.380;7.226;2022-12-20T06:00:12;5.77;;;4.20;;
25497;SDS011;13406;53.380;7.226;2022-12-20T06:02:38;7.30;;;4.07;;
25497;SDS011;13406;53.380;7.226;2022-12-20T06:05:04;7.23;;;4.10;;
25497;SDS011;13406;53.380;7.226;2022-12-20T06:07:29;6.10;;;4.40;;
25497;SDS011;13406;53.380;7.226;2022-12-20T06:09:55;7.83;;;5.07;;
25497;SDS011;13406;53.380;7.226;2022-12-20T06:12:21;4.80;;;4.30;;
25497;SDS011;13406;53.380;7.226;2022-12-20T06:14:47;8.33;;;4.23;;
25497;SDS011;13406;53.380;7.226;2022-12-20T06:17:12;6.87;;;4.00;;
25497;SDS011;13406;53.380;7.226;2022-12-20T06:19:37;5.63;;;4.40;;
25497;SDS011;13406;53.380;7.226;2022-12-20T06:22:05;4.03;;;3.53;;
25497;SDS011;13406;53.380;7.226;2022-12-20T06:24:30;6.77;;;3.70;;
25497;SDS011;13406;53.380;7.226;2022-12-20T06:26:56;7.40;;;4.33;;
25497;SDS011;13406;53.380;7.226;2022-12-20T06:29:22;5.03;;;3.60;;
25497;SDS011;13406;53.380;7.226;2022-12-20T06:31:49;6.20;;;3.80;;
25497;SDS011;13406;53.380;7.226;2022-12-20T06:34:15;4.93;;;3.60;;
25497;SDS011;13406;53.380;7.226;2022-12-20T06:36:40;5.90;;;4.03;;
25497;SDS011;13406;53.380;7.226;2022-12-20T06:39:05;7.80;;;4.23;;
25497;SDS011;13406;53.380;7.226;2022-12-20T06:41:33;6.57;;;4.00;;
25497;SDS011;13406;53.380;7.226;2022-12-20T06:43:58;6.40;;;3.70;;
25497;SDS011;13406;53.380;7.226;2022-12-20T06:46:24;6.53;;;4.07;;
25497;SDS011;13406;53.380;7.226;2022-12-20T06:48:49;4.30;;;3.87;;
25497;SDS011;13406;53.380;7.226;2022-12-20T06:51:14;4.90;;;4.00;;
25497;SDS011;13406;53.380;7.226;2022-12-20T06:53:41;8.03;;;3.23;;
25497;SDS011;13406;53.380;7.226;2022-12-20T06:56:06;5.20;;;3.70;;
25497;SDS011;13406;53.380;7.226;2022-12-20T06:58:31;5.97;;;4.00;;
25497;SDS011;13406;53.380;7.226;2022-12-20T07:00:57;3.90;;;3.50;;
25497;SDS011;13406;53.380;7.226;2022-12-20T07:03:22;4.67;;;3.20;;
25497;SDS011;13406;53.380;7.226;2022-12-20T07:05:51;3.30;;;3.00;;
25497;SDS011;13406;53.380;7.226;2022-12-20T07:08:17;7.17;;;3.10;;
25497;SDS011;13406;53.380;7.226;2022-12-20T07:10:43;4.87;;;2.80;;
25497;SDS011;13406;53.380;7.226;2022-12-20T07:13:08;4.33;;;2.80;;
25497;SDS011;13406;53.380;7.226;2022-12-20T07:15:33;4.20;;;3.30;;
25497;SDS011;13406;53.380;7.226;2022-12-20T07:17:59;7.43;;;3.10;;
25497;SDS011;13406;53.380;7.226;2022-12-20T07:20:24;6.10;;;3.93;;
25497;SDS011;13406;53.380;7.226;2022-12-20T07:22:49;3.83;;;2.87;;
25497;SDS011;13406;53.380;7.226;2022-12-20T07:25:14;4.20;;;3.40;;
25497;SDS011;13406;53.380;7.226;2022-12-20T07:27:40;4.40;;;3.30;;
25497;SDS011;13406;53.380;7.226;2022-12-20T07:30:05;6.33;;;3.10;;
25497;SDS011;13406;53.380;7.226;2022-12-20T07:32:31;6.20;;;3.73;;
25497;SDS011;13406;53.380;7.226;2022-12-20T07:34:56;8.90;;;3.70;;
25497;SDS011;13406;53.380;7.226;2022-12-20T07:37:21;8.33;;;4.33;;
25497;SDS011;13406;53.380;7.226;2022-12-20T07:39:47;6.60;;;4.47;;
25497;SDS011;13406;53.380;7.226;2022-12-20T07:42:12;8.60;;;4.17;;
25497;SDS011;13406;53.380;7.226;2022-12-20T07:44:37;7.53;;;5.33;;
25497;SDS011;13406;53.380;7.226;2022-12-20T07:47:02;6.33;;;4.50;;
25497;SDS011;13406;53.380;7.226;2022-12-20T07:49:28;9.03;;;5.00;;
25497;SDS011;13406;53.380;7.226;2022-12-20T07:51:54;5.93;;;4.00;;
25497;SDS011;13406;53.380;7.226;2022-12-20T07:54:22;7.60;;;5.30;;
25497;SDS011;13406;53.380;7.226;2022-12-20T07:56:53;5.67;;;4.23;;
25497;SDS011;13406;53.380;7.226;2022-12-20T07:59:21;4.53;;;3.93;;
25497;SDS011;13406;53.380;7.226;2022-12-20T08:01:48;7.63;;;4.30;;
25497;SDS011;13406;53.380;7.226;2022-12-20T08:04:18;5.50;;;4.10;;
25497;SDS011;13406;53.380;7.226;2022-12-20T08:06:43;6.00;;;4.80;;
25497;SDS011;13406;53.380;7.226;2022-12-20T08:09:10;8.20;;;5.03;;
25497;SDS011;13406;53.380;7.226;2022-12-20T08:11:40;6.00;;;4.33;;
25497;SDS011;13406;53.380;7.226;2022-12-20T08:14:05;9.20;;;5.20;;
25497;SDS011;13406;53.380;7.226;2022-12-20T08:16:32;8.20;;;5.27;;
25497;SDS011;13406;53.380;7.226;2022-12-20T08:18:57;6.30;;;4.60;;
25497;SDS011;13406;53.380;7.226;2022-12-20T08:21:22;5.43;;;4.40;;
25497;SDS011;13406;53.380;7.226;2022-12-20T08:23:48;6.57;;;5.10;;
25497;SDS011;13406;53.380;7.226;2022-12-20T08:26:13;9.17;;;4.43;;
25497;SDS011;13406;53.380;7.226;2022-12-20T08:28:38;8.07;;;4.80;;
25497;SDS011;13406;53.380;7.226;2022-12-20T08:31:04;7.10;;;4.87;;
25497;SDS011;13406;53.380;7.226;2022-12-20T08:33:30;5.53;;;4.43;;
25497;SDS011;13406;53.380;7.226;2022-12-20T08:36:00;6.80;;;5.30;;
25497;SDS011;13406;53.380;7.226;2022-12-20T08:38:29;5.13;;;4.73;;
25497;SDS011;13406;53.380;7.226;2022-12-20T08:40:55;5.90;;;4.77;;
25497;SDS011;13406;53.380;7.226;2022-12-20T08:43:25;6.27;;;4.73;;
25497;SDS011;13406;53.380;7.226;2022-12-20T08:45:51;6.07;;;5.00;;
25497;SDS011;13406;53.380;7.226;2022-12-20T08:48:17;6.00;;;5.40;;
25497;SDS011;13406;53.380;7.226;2022-12-20T08:50:42;6.00;;;5.00;;
25497;SDS011;13406;53.380;7.226;2022-12-20T08:53:08;7.27;;;4.67;;
25497;SDS011;13406;53.380;7.226;2022-12-20T08:55:33;8.03;;;5.43;;
25497;SDS011;13406;53.380;7.226;2022-12-20T08:57:58;5.20;;;4.70;;
25497;SDS011;13406;53.380;7.226;2022-12-20T09:00:23;7.33;;;5.20;;
25497;SDS011;13406;53.380;7.226;2022-12-20T09:02:49;9.30;;;5.20;;
25497;SDS011;13406;53.380;7.226;2022-12-20T09:05:15;8.47;;;5.47;;
25497;SDS011;13406;53.380;7.226;2022-12-20T09:07:41;6.07;;;4.70;;
25497;SDS011;13406;53.380;7.226;2022-12-20T09:10:06;5.53;;;5.03;;
25497;SDS011;13406;53.380;7.226;2022-12-20T09:12:33;4.90;;;4.40;;
25497;SDS011;13406;53.380;7.226;2022-12-20T09:15:00;6.63;;;4.97;;
25497;SDS011;13406;53.380;7.226;2022-12-20T09:17:25;5.17;;;4.20;;
25497;SDS011;13406;53.380;7.226;2022-12-20T09:19:50;6.90;;;4.50;;
25497;SDS011;13406;53.380;7.226;2022-12-20T09:22:16;6.80;;;4.50;;
25497;SDS011;13406;53.380;7.226;2022-12-20T09:24:41;7.03;;;4.13;;
25497;SDS011;13406;53.380;7.226;2022-12-20T09:27:06;7.27;;;4.10;;
25497;SDS011;13406;53.380;7.226;2022-12-20T09:29:31;5.90;;;4.30;;
25497;SDS011;13406;53.380;7.226;2022-12-20T09:31:57;6.93;;;4.50;;
25497;SDS011;13406;53.380;7.226;2022-12-20T09:34:22;6.60;;;3.97;;
25497;SDS011;13406;53.380;7.226;2022-12-20T09:36:47;15.90;;;4.53;;
25497;SDS011;13406;53.380;7.226;2022-12-20T09:39:12;6.30;;;3.30;;
25497;SDS011;13406;53.380;7.226;2022-12-20T09:41:38;5.73;;;3.87;;
25497;SDS011;13406;53.380;7.226;2022-12-20T09:44:06;11.83;;;3.90;;
25497;SDS011;13406;53.380;7.226;2022-12-20T09:46:38;4.83;;;2.83;;
25497;SDS011;13406;53.380;7.226;2022-12-20T09:49:04;5.37;;;3.50;;
25497;SDS011;13406;53.380;7.226;2022-12-20T09:56:31;6.50;;;3.17;;
25497;SDS011;13406;53.380;7.226;2022-12-20T09:58:58;7.47;;;3.30;;
25497;SDS011;13406;53.380;7.226;2022-12-20T10:01:25;4.43;;;2.97;;
25497;SDS011;13406;53.380;7.226;2022-12-20T10:03:51;5.90;;;3.50;;
25497;SDS011;13406;53.380;7.226;2022-12-20T10:06:54;7.73;;;2.97;;
25497;SDS011;13406;53.380;7.226;2022-12-20T10:17:02;4.77;;;3.03;;
25497;SDS011;13406;53.380;7.226;2022-12-20T10:24:32;4.60;;;3.30;;
25497;SDS011;13406;53.380;7.226;2022-12-20T10:27:06;7.93;;;4.03;;
25497;SDS011;13406;53.380;7.226;2022-12-20T10:29:34;3.50;;;3.17;;
25497;SDS011;13406;53.380;7.226;2022-12-20T10:32:00;3.40;;;3.10;;
25497;SDS011;13406;53.380;7.226;2022-12-20T10:34:26;3.90;;;2.90;;
25497;SDS011;13406;53.380;7.226;2022-12-20T10:39:42;4.80;;;3.77;;
25497;SDS011;13406;53.380;7.226;2022-12-20T10:42:24;3.50;;;3.03;;
25497;SDS011;13406;53.380;7.226;2022-12-20T10:44:49;8.00;;;3.57;;
25497;SDS011;13406;53.380;7.226;2022-12-20T10:50:09;11.83;;;3.30;;
25497;SDS011;13406;53.380;7.226;2022-12-20T10:52:36;7.37;;;3.10;;
25497;SDS011;13406;53.380;7.226;2022-12-20T10:55:02;4.20;;;2.50;;
25497;SDS011;13406;53.380;7.226;2022-12-20T10:57:27;5.30;;;2.60;;
25497;SDS011;13406;53.380;7.226;2022-12-20T10:59:55;4.47;;;2.93;;
25497;SDS011;13406;53.380;7.226;2022-12-20T11:02:25;4.10;;;3.00;;
25497;SDS011;13406;53.380;7.226;2022-12-20T11:05:15;3.13;;;2.63;;
25497;SDS011;13406;53.380;7.226;2022-12-20T11:07:59;5.27;;;3.30;;
25497;SDS011;13406;53.380;7.226;2022-12-20T11:10:26;3.00;;;2.70;;
25497;SDS011;13406;53.380;7.226;2022-12-20T11:12:57;3.80;;;3.17;;
25497;SDS011;13406;53.380;7.226;2022-12-20T11:15:27;3.97;;;2.90;;
25497;SDS011;13406;53.380;7.226;2022-12-20T11:17:55;6.30;;;3.60;;
25497;SDS011;13406;53.380;7.226;2022-12-20T11:20:24;5.10;;;3.10;;
25497;SDS011;13406;53.380;7.226;2022-12-20T11:36:07;5.80;;;3.07;;
25497;SDS011;13406;53.380;7.226;2022-12-20T11:38:44;8.23;;;4.17;;
25497;SDS011;13406;53.380;7.226;2022-12-20T11:46:16;4.50;;;3.60;;
25497;SDS011;13406;53.380;7.226;2022-12-20T11:48:51;7.30;;;4.00;;
25497;SDS011;13406;53.380;7.226;2022-12-20T11:54:08;5.60;;;3.63;;
25497;SDS011;13406;53.380;7.226;2022-12-20T11:56:35;5.97;;;3.20;;
25497;SDS011;13406;53.380;7.226;2022-12-20T12:01:34;4.43;;;3.40;;
25497;SDS011;13406;53.380;7.226;2022-12-20T12:04:12;5.63;;;3.47;;
25497;SDS011;13406;53.380;7.226;2022-12-20T12:06:40;4.70;;;3.33;;
25497;SDS011;13406;53.380;7.226;2022-12-20T12:11:39;4.57;;;3.73;;
25497;SDS011;13406;53.380;7.226;2022-12-20T12:14:14;4.10;;;3.57;;
25497;SDS011;13406;53.380;7.226;2022-12-20T12:16:46;5.00;;;3.40;;
25497;SDS011;13406;53.380;7.226;2022-12-20T12:19:20;5.57;;;3.70;;
25497;SDS011;13406;53.380;7.226;2022-12-20T12:21:51;5.70;;;3.20;;
25497;SDS011;13406;53.380;7.226;2022-12-20T12:26:51;5.20;;;3.40;;
25497;SDS011;13406;53.380;7.226;2022-12-20T12:29:17;4.80;;;3.30;;
25497;SDS011;13406;53.380;7.226;2022-12-20T12:31:48;8.00;;;3.83;;
25497;SDS011;13406;53.380;7.226;2022-12-20T12:34:20;5.27;;;3.20;;
25497;SDS011;13406;53.380;7.226;2022-12-20T12:47:18;3.30;;;3.00;;
25497;SDS011;13406;53.380;7.226;2022-12-20T12:49:42;4.80;;;3.03;;
25497;SDS011;13406;53.380;7.226;2022-12-20T12:52:21;6.23;;;3.20;;
25497;SDS011;13406;53.380;7.226;2022-12-20T12:54:49;5.43;;;3.40;;
25497;SDS011;13406;53.380;7.226;2022-12-20T12:57:16;5.03;;;3.00;;
25497;SDS011;13406;53.380;7.226;2022-12-20T12:59:45;5.40;;;3.43;;
25497;SDS011;13406;53.380;7.226;2022-12-20T13:07:39;5.30;;;2.90;;
25497;SDS011;13406;53.380;7.226;2022-12-20T13:19:52;6.17;;;3.87;;
25497;SDS011;13406;53.380;7.226;2022-12-20T13:22:19;6.30;;;3.37;;
25497;SDS011;13406;53.380;7.226;2022-12-20T13:24:58;8.00;;;4.03;;
25497;SDS011;13406;53.380;7.226;2022-12-20T13:27:25;9.10;;;3.87;;
25497;SDS011;13406;53.380;7.226;2022-12-20T13:40:20;4.23;;;3.40;;
25497;SDS011;13406;53.380;7.226;2022-12-20T13:42:47;5.67;;;3.20;;
25497;SDS011;13406;53.380;7.226;2022-12-20T13:45:13;4.80;;;3.10;;
25497;SDS011;13406;53.380;7.226;2022-12-20T13:47:41;3.80;;;3.23;;
25497;SDS011;13406;53.380;7.226;2022-12-20T13:50:20;5.30;;;3.13;;
25497;SDS011;13406;53.380;7.226;2022-12-20T13:52:46;5.90;;;3.80;;
25497;SDS011;13406;53.380;7.226;2022-12-20T13:55:16;4.00;;;3.60;;
25497;SDS011;13406;53.380;7.226;2022-12-20T13:57:47;4.90;;;3.60;;
25497;SDS011;13406;53.380;7.226;2022-12-20T14:00:16;3.90;;;3.20;;
25497;SDS011;13406;53.380;7.226;2022-12-20T14:02:42;5.73;;;3.30;;
25497;SDS011;13406;53.380;7.226;2022-12-20T14:07:39;4.63;;;4.10;;
25497;SDS011;13406;53.380;7.226;2022-12-20T14:10:15;5.13;;;3.50;;
25497;SDS011;13406;53.380;7.226;2022-12-20T14:12:43;4.67;;;3.70;;
25497;SDS011;13406;53.380;7.226;2022-12-20T14:15:22;3.90;;;3.60;;
25497;SDS011;13406;53.380;7.226;2022-12-20T14:17:47;3.23;;;2.93;;
25497;SDS011;13406;53.380;7.226;2022-12-20T14:20:14;3.97;;;3.63;;
25497;SDS011;13406;53.380;7.226;2022-12-20T14:22:53;3.50;;;3.07;;
25497;SDS011;13406;53.380;7.226;2022-12-20T14:25:31;4.53;;;3.93;;
25497;SDS011;13406;53.380;7.226;2022-12-20T14:27:57;4.40;;;4.00;;
25497;SDS011;13406;53.380;7.226;2022-12-20T14:30:26;4.37;;;3.93;;
25497;SDS011;13406;53.380;7.226;2022-12-20T14:32:53;4.70;;;3.83;;
25497;SDS011;13406;53.380;7.226;2022-12-20T14:35:18;5.50;;;4.50;;
25497;SDS011;13406;53.380;7.226;2022-12-20T14:37:51;4.37;;;3.93;;
25497;SDS011;13406;53.380;7.226;2022-12-20T14:40:17;5.47;;;4.17;;
25497;SDS011;13406;53.380;7.226;2022-12-20T14:42:43;6.03;;;4.50;;
25497;SDS011;13406;53.380;7.226;2022-12-20T14:47:35;6.10;;;4.87;;
25497;SDS011;13406;53.380;7.226;2022-12-20T14:50:02;6.13;;;4.73;;
25497;SDS011;13406;53.380;7.226;2022-12-20T14:52:30;5.17;;;4.67;;
25497;SDS011;13406;53.380;7.226;2022-12-20T14:55:01;6.63;;;4.90;;
25497;SDS011;13406;53.380;7.226;2022-12-20T15:02:45;7.27;;;5.13;;
25497;SDS011;13406;53.380;7.226;2022-12-20T15:07:57;5.70;;;5.10;;
25497;SDS011;13406;53.380;7.226;2022-12-20T15:10:33;6.67;;;6.07;;
25497;SDS011;13406;53.380;7.226;2022-12-20T15:12:58;5.63;;;5.13;;
25497;SDS011;13406;53.380;7.226;2022-12-20T15:15:23;7.00;;;6.30;;
25497;SDS011;13406;53.380;7.226;2022-12-20T15:17:49;8.00;;;6.50;;
25497;SDS011;13406;53.380;7.226;2022-12-20T15:20:14;7.83;;;6.30;;
25497;SDS011;13406;53.380;7.226;2022-12-20T15:22:40;7.33;;;6.20;;
25497;SDS011;13406;53.380;7.226;2022-12-20T15:25:15;11.37;;;7.37;;
25497;SDS011;13406;53.380;7.226;2022-12-20T15:27:40;7.53;;;6.83;;
25497;SDS011;13406;53.380;7.226;2022-12-20T15:30:10;7.47;;;6.77;;
25497;SDS011;13406;53.380;7.226;2022-12-20T15:32:37;7.10;;;6.40;;
25497;SDS011;13406;53.380;7.226;2022-12-20T15:35:03;7.90;;;6.37;;
25497;SDS011;13406;53.380;7.226;2022-12-20T15:37:28;10.43;;;6.17;;
25497;SDS011;13406;53.380;7.226;2022-12-20T15:39:53;7.93;;;6.47;;
25497;SDS011;13406;53.380;7.226;2022-12-20T15:42:19;6.50;;;5.90;;
25497;SDS011;13406;53.380;7.226;2022-12-20T15:44:44;8.37;;;7.47;;
25497;SDS011;13406;53.380;7.226;2022-12-20T15:47:13;7.70;;;6.50;;
25497;SDS011;13406;53.380;7.226;2022-12-20T15:49:39;8.80;;;6.40;;
25497;SDS011;13406;53.380;7.226;2022-12-20T15:52:05;7.77;;;6.97;;
25497;SDS011;13406;53.380;7.226;2022-12-20T15:54:31;8.80;;;8.10;;
25497;SDS011;13406;53.380;7.226;2022-12-20T15:56:58;7.97;;;6.30;;
25497;SDS011;13406;53.380;7.226;2022-12-20T15:59:24;7.93;;;7.13;;
25497;SDS011;13406;53.380;7.226;2022-12-20T16:01:49;14.33;;;8.20;;
25497;SDS011;13406;53.380;7.226;2022-12-20T16:04:16;8.70;;;7.57;;
25497;SDS011;13406;53.380;7.226;2022-12-20T16:06:42;12.07;;;8.13;;
25497;SDS011;13406;53.380;7.226;2022-12-20T16:09:08;8.90;;;7.83;;
25497;SDS011;13406;53.380;7.226;2022-12-20T16:11:33;8.77;;;7.90;;
25497;SDS011;13406;53.380;7.226;2022-12-20T16:13:59;9.53;;;8.57;;
25497;SDS011;13406;53.380;7.226;2022-12-20T16:16:28;10.57;;;7.93;;
25497;SDS011;13406;53.380;7.226;2022-12-20T16:18:54;10.03;;;9.03;;
25497;SDS011;13406;53.380;7.226;2022-12-20T16:21:21;10.97;;;8.43;;
25497;SDS011;13406;53.380;7.226;2022-12-20T16:23:46;9.17;;;8.37;;
25497;SDS011;13406;53.380;7.226;2022-12-20T16:26:14;11.20;;;8.63;;
25497;SDS011;13406;53.380;7.226;2022-12-20T16:28:40;8.83;;;8.13;;
25497;SDS011;13406;53.380;7.226;2022-12-20T16:33:59;9.93;;;9.13;;
25497;SDS011;13406;53.380;7.226;2022-12-20T16:36:24;11.37;;;10.20;;
25497;SDS011;13406;53.380;7.226;2022-12-20T16:38:53;11.37;;;10.27;;
25497;SDS011;13406;53.380;7.226;2022-12-20T16:41:23;10.00;;;9.20;;
25497;SDS011;13406;53.380;7.226;2022-12-20T16:43:48;11.60;;;10.43;;
25497;SDS011;13406;53.380;7.226;2022-12-20T16:46:14;10.17;;;9.23;;
25497;SDS011;13406;53.380;7.226;2022-12-20T16:48:40;12.07;;;10.37;;